Ride Results

Easter Marathon (03-04-2015)
Ride distance: 80.0 km

Outcomes - Easter Marathon (03-04-2015)
Division No. of Entries Retired / DNE Completed Withdrawn Ineligible V/O Percentage Completed
HW 4 - 3 1 - - 75.00%
MW 16 - 10 1 - 5 62.50%
LW 13 - 8 - - 5 61.54%
JN 12 - 7 1 - 4 58.33%
Totals 45 - 28 3 - 14 62.22%
Results - Easter Marathon (03-04-2015)
No. Rider Horse Place Time Leg Speeds Total
Km/Hr
H/R bpm
Heavyweight
122 Ged Nicklason Wongawol Legend 1 (BC) 6:32:59 13.5, 11.1 12.21 44, 43, 45 (Avg:44)
252 Gregg Fields Hopetoun Surprisedom 2 7:00:57 10.7, 12.1 11.40 47, 46, 55 (Avg:50)
254 Deb Wyllie Aloha Royal Lover 3 7:42:17 10.1, 10.6 10.38 38, 43, 47 (Avg:45)
194 Robby Walsh Free Spirit Czar Withdrawn L1 0:00:00 - - 39, 47 (Avg:47)
Middleweight
79 Shannon Hill Lockleigh Park Silver Comet 1 3:44:23 20.5, 22.3 21.39 34, 41, 47 (Avg:44)
38 Tony Purton Beer Street Lizzy B 2 4:26:38 19.9, 16.4 18.00 36, 45, 55 (Avg:50)
179 Debbie Grull Lauralyn Notorious 3 (BC) 5:18:11 15.6, 14.5 15.09 37, 44, 39 (Avg:41)
114 Tara Nicklason Wattlelea Zaharra 4 6:32:59 13.5, 11.1 12.21 38, 46, 57 (Avg:51)
264 Ellie Maddick Awarran Park Alady Oracle 5 6:42:38 12.2, 11.5 11.92 43, 42, 59 (Avg:50)
180 Nicole Ford Elphyn Ripple 6 6:57:31 11.0, 11.9 11.50 40, 42, 51 (Avg:46)
92 Blaine Astell Rivergum Spirit 7 6:57:32 11.0, 11.9 11.50 27, 36, 41 (Avg:38)
68 Janine Parr Janarr Shimmering Surprise 8 7:03:37 11.4, 11.1 11.33 50, 50, 47 (Avg:48)
102 Keryn Mahoney Tonki Dee Boo Pricilla 9 7:22:51 10.2, 11.4 10.84 40, 41, 49 (Avg:45)
L Tracey Wyllie Concherto FF 10 7:42:22 10.1, 10.5 10.38 40, 43, 44 (Avg:43)
N Noel Lockhart Ralvon Splendour Lame L2 0:00:00 15.6, 13.4 - 31, 41, 50 (Avg:45)
154 Sarah Parker Lynn-Roy Sharik Lame L2 0:00:00 10.1, 13.9 - 36, 42, 55 (Avg:48)
22 Helen Astell Flitter Lame L1 0:00:00 10.7 - 34, 41 (Avg:41)
227 Mary Austin Cookie Withdrawn L1 0:00:00 - - 38, 49 (Avg:49)
78 Brad Hill The Hobbit Lame L1 0:00:00 20.5 - 32, 50 (Avg:50)
119 Max Lockhart Billy Heart Rate L1 0:00:00 12.3 - 60, 59 (Avg:59)
Lightweight
12 Anita Hutchins Temar Mahavee 1 (BC) 5:22:48 14.6, 15.1 14.87 34, 42, 50 (Avg:46)
74 Felicity Perry Jaggah Ka 1 5:22:48 14.6, 15.1 14.87 37, 41, 53 (Avg:47)
51 Debbie Leary El Desanteh 3 6:03:54 13.3, 13.0 13.19 41, 49, 54 (Avg:51)
110 Amanda Campbell Davlyn Park Camille 4 6:42:42 12.2, 11.5 11.92 39, 44, 55 (Avg:49)
37 Jen Clingly Imaj Zamir 5 6:47:07 12.4, 11.2 11.79 41, 36, 37 (Avg:36)
16 Margaret Richardson Bold Nickel 5 6:47:07 12.4, 11.1 11.79 39, 39, 40 (Avg:39)
271 Jessie Herman Highland View Crystal 7 7:03:43 11.0, 11.6 11.33 37, 45, 45 (Avg:45)
301 Lyn Stevenson Woodsong Komet 8 8:48:27 9.7, 8.4 9.08 45, 40, 48 (Avg:44)
125 Brooke Brown-Cordell Ausden Reflection Lame L2 0:00:00 20.2, 22.6 - 34, 46, 56 (Avg:51)
83 Angie Clark Cameo Izaiah Lame L2 0:00:00 14.1, 15.6 - 40, 45, 50 (Avg:47)
192 Karen Fields Castlebar Stingray Lame L2 0:00:00 10.7, 12.1 - 34, 42, 55 (Avg:48)
19 Sonia Hodgetts Diamond Tail Desert Opal Lame L2 0:00:00 12.4, 11.2 - 37, 43, 56 (Avg:49)
42 Dianne Walsh Walford Jaydjay Lame L1 0:00:00 10.2 - 48, 46 (Avg:46)
Junior
113 Kirstie Lockhart Suroco 1 5:18:08 15.6, 14.5 15.09 49, 42, 51 (Avg:46)
190 Alice Mitchell Beer Street Banshee 1 (BC) 5:18:08 15.7, 14.5 15.09 39, 45, 45 (Avg:45)
209 Grace Huxtable Bacardi 3 6:16:03 12.7, 12.7 12.76 50, 53, 56 (Avg:54)
308 Ella Carter Ra-Anji Fadel 4 6:57:35 11.0, 11.9 11.49 37, 45, 44 (Avg:44)
297 Brittany Farrell Awarran Park Jamilah Shayde 5 7:36:04 9.9, 11.2 10.52 38, 46, 47 (Avg:46)
290 Jessica Williams Jaimon-Sharhi Baqi 5 7:36:04 9.9, 11.2 10.52 33, 40, 53 (Avg:46)
70 Charlotte Wyllie Ace of Moravian 7 7:42:14 10.1, 10.5 10.38 40, 44, 51 (Avg:47)
287 David Anderson Jnr Bree-Minah Heart Rate L1 0:00:00 12.7 - 41, 62 (Avg:62)
47 Holli Anthony OToole Dream Catcher Te Lame L1 0:00:00 11.0 - 42, 41 (Avg:41)
277 Heather Colbeck Awarran Park Silver Starlite Lame L1 0:00:00 8.3 - 51, 50 (Avg:50)
237 Khalan Ford Cruze KA Withdrawn L1 0:00:00 - - 39, 55 (Avg:55)
186 Amelia Napier Narrawa Diamond Lame L1 0:00:00 10.7 - 60, 50 (Avg:50)